Weather reports worldwide

Advertisment
Aonach Mor, United Kingdom (3041): temperature & dewpoint: 15.08.2017 11:00:00 - 21.08.2017 11:00:00 (BST)Aonach Mor, United Kingdom (3041): wind speed & gusts: 15.08.2017 11:00:00 - 21.08.2017 11:00:00 (BST)Aonach Mor, United Kingdom (3041): wind direction: 15.08.2017 11:00:00 - 21.08.2017 11:00:00 (BST)Aonach Mor, United Kingdom (3041): visibility: 15.08.2017 11:00:00 - 21.08.2017 11:00:00 (BST)
Date & Time tt [°C] td [°C] ff [km/h] ff [kn] fx [km/h] fx [kn] dd vv [km]
21.08.2017 11:00:00 8,6 5,8 21 11 - - S -
21.08.2017 10:00:00 7,3 5,6 21 11 - - S -
21.08.2017 09:00:00 6,7 5,4 18 10 - - SSW -
21.08.2017 08:00:00 7,0 1,0 18 10 - - SSW -
21.08.2017 07:00:00 6,1 2,3 15 8 - - S -
21.08.2017 06:00:00 6,8 2,7 18 10 - - SSE -
21.08.2017 05:00:00 6,4 3,7 22 12 - - S -
21.08.2017 04:00:00 6,3 3,8 26 14 - - S -
21.08.2017 03:00:00 6,0 4,2 22 12 - - S -
21.08.2017 02:00:00 6,0 4,9 24 13 - - S -
21.08.2017 01:00:00 6,3 4,6 24 13 - - SSE -
21.08.2017 00:00:00 6,5 4,7 21 11 - - SSE -
20.08.2017 23:00:00 6,2 5,2 18 10 - - SSE -
20.08.2017 22:00:00 6,2 5,9 11 6 - - SE -
20.08.2017 21:00:00 6,3 5,5 11 6 - - SE -
20.08.2017 20:00:00 6,0 3,5 5 3 - - SSW -
20.08.2017 19:00:00 6,6 5,6 5 3 - - W -
20.08.2017 18:00:00 6,4 5,5 5 3 - - SW -
20.08.2017 17:00:00 6,4 5,8 13 7 - - WSW -
20.08.2017 16:00:00 6,3 2,9 8 4 - - W -
20.08.2017 15:00:00 6,2 4,7 5 3 - - WSW -
20.08.2017 14:00:00 6,1 4,7 9 5 - - WSW -
20.08.2017 13:00:00 5,6 3,1 9 5 - - WSW -
20.08.2017 12:00:00 5,4 1,3 9 5 - - WSW -
20.08.2017 11:00:00 4,5 0,0 8 4 - - W -
20.08.2017 10:00:00 4,7 4,1 9 5 - - W -
20.08.2017 09:00:00 4,5 4,4 11 6 - - WSW -
20.08.2017 08:00:00 4,3 4,3 11 6 - - W -
20.08.2017 07:00:00 4,7 4,6 13 7 - - WNW -
20.08.2017 06:00:00 4,9 4,8 16 9 - - WSW -
20.08.2017 05:00:00 4,9 4,8 15 8 - - WSW -
20.08.2017 04:00:00 5,1 5,0 16 9 - - W -
20.08.2017 03:00:00 5,2 5,1 26 14 - - W -
20.08.2017 02:00:00 5,3 5,2 22 12 - - W -
20.08.2017 01:00:00 5,5 5,4 26 14 57 31 WSW -
20.08.2017 00:00:00 5,4 5,3 29 16 52 28 WSW -
19.08.2017 23:00:00 5,5 5,3 28 15 46 25 W -
19.08.2017 22:00:00 5,7 5,6 24 13 - - W -
19.08.2017 21:00:00 6,1 6,0 26 14 - - WSW -
19.08.2017 20:00:00 6,3 6,2 31 17 52 28 WSW -
19.08.2017 19:00:00 6,5 6,4 22 12 50 27 W -
19.08.2017 18:00:00 6,7 6,6 22 12 50 27 W -
19.08.2017 17:00:00 6,7 6,6 24 13 - - W -
19.08.2017 16:00:00 6,8 6,6 24 13 - - W -
19.08.2017 15:00:00 6,8 6,7 28 15 59 32 WNW -
19.08.2017 14:00:00 6,9 6,8 34 18 83 45 WSW -
19.08.2017 13:00:00 6,4 6,3 55 30 85 46 WSW -
19.08.2017 12:00:00 6,2 6,0 68 37 94 51 WSW -
19.08.2017 11:00:00 5,7 5,5 52 28 85 46 WSW -
19.08.2017 10:00:00 5,5 5,4 41 22 76 41 WSW -
19.08.2017 09:00:00 5,3 5,2 48 26 81 44 WSW -
19.08.2017 08:00:00 5,1 5,0 48 26 81 44 WSW -
19.08.2017 07:00:00 4,6 4,6 52 28 70 38 WSW -
19.08.2017 06:00:00 3,7 3,7 54 29 67 36 WSW -
19.08.2017 05:00:00 3,3 3,2 48 26 63 34 WSW -
19.08.2017 04:00:00 3,4 3,3 50 27 72 39 WSW -
19.08.2017 03:00:00 4,1 4,0 52 28 67 36 WSW -
19.08.2017 02:00:00 4,8 4,7 29 16 70 38 W -
19.08.2017 01:00:00 4,8 4,7 44 24 72 39 WSW -
19.08.2017 00:00:00 5,0 4,9 39 21 70 38 WSW -
18.08.2017 23:00:00 5,4 5,3 44 24 63 34 WSW -
18.08.2017 22:00:00 5,9 5,8 37 20 63 34 WSW -
18.08.2017 21:00:00 6,1 6,0 29 16 57 31 W -
18.08.2017 20:00:00 6,0 5,8 42 23 70 38 WSW -
18.08.2017 19:00:00 5,5 5,3 28 15 57 31 WSW -
18.08.2017 18:00:00 5,2 5,1 41 22 68 37 WSW -
18.08.2017 17:00:00 5,1 4,9 39 21 61 33 WSW -
18.08.2017 16:00:00 5,1 5,0 42 23 57 31 WSW -
18.08.2017 15:00:00 4,6 4,4 42 23 63 34 WSW -
18.08.2017 14:00:00 4,6 4,5 41 22 67 36 WSW -
18.08.2017 13:00:00 4,5 4,2 48 26 83 45 WSW -
18.08.2017 12:00:00 4,4 4,3 50 27 72 39 SW -
18.08.2017 11:00:00 4,0 3,9 29 16 50 27 WSW -
18.08.2017 10:00:00 3,5 3,1 39 21 54 29 WSW -
18.08.2017 09:00:00 3,3 3,2 41 22 57 31 WSW -
18.08.2017 08:00:00 3,7 3,6 46 25 68 37 WSW -
18.08.2017 07:00:00 4,1 4,0 39 21 54 29 WSW -
18.08.2017 06:00:00 5,7 5,6 37 20 54 29 SSW -
18.08.2017 05:00:00 6,8 6,7 28 15 63 34 SSW -
18.08.2017 04:00:00 6,9 6,8 35 19 61 33 S -
18.08.2017 03:00:00 7,1 7,0 34 18 55 30 S -
18.08.2017 02:00:00 7,2 7,1 35 19 61 33 S -
18.08.2017 01:00:00 7,3 7,2 39 21 67 36 S -
18.08.2017 00:00:00 7,2 7,1 35 19 57 31 S -
17.08.2017 23:00:00 6,9 6,7 29 16 46 25 S -
17.08.2017 22:00:00 6,4 6,1 35 19 65 35 SSW -
17.08.2017 21:00:00 7,7 5,5 52 28 65 35 SW -
17.08.2017 20:00:00 6,4 5,8 44 24 65 35 SSW -
17.08.2017 19:00:00 6,9 6,2 48 26 81 44 SSW -
17.08.2017 18:00:00 6,4 6,3 48 26 78 42 SW -
17.08.2017 17:00:00 6,8 6,7 46 25 80 43 SW -
17.08.2017 16:00:00 7,0 6,9 46 25 80 43 SW -
17.08.2017 15:00:00 7,4 7,3 54 29 89 48 SSW -
17.08.2017 14:00:00 7,3 7,1 57 31 93 50 SW -
17.08.2017 13:00:00 7,4 7,2 57 31 93 50 SSW -
17.08.2017 12:00:00 7,2 7,1 61 33 93 50 SSW -
17.08.2017 11:00:00 7,0 6,8 59 32 87 47 SSW -
17.08.2017 10:00:00 6,6 6,4 59 32 78 42 SSW -
17.08.2017 09:00:00 6,1 6,0 50 27 80 43 SSW -
17.08.2017 08:00:00 5,8 5,7 52 28 85 46 SW -
17.08.2017 07:00:00 5,7 5,6 57 31 89 48 SW -
17.08.2017 06:00:00 5,7 5,6 50 27 85 46 SW -
17.08.2017 05:00:00 6,0 5,9 54 29 89 48 SW -
17.08.2017 04:00:00 6,4 6,3 59 32 96 52 SSW -
17.08.2017 03:00:00 5,9 5,9 46 25 76 41 SW -
17.08.2017 02:00:00 6,1 6,1 46 25 81 44 SW -
17.08.2017 01:00:00 6,8 6,8 57 31 87 47 SSW -
17.08.2017 00:00:00 7,6 7,6 48 26 89 48 SW -
16.08.2017 23:00:00 9,1 9,0 41 22 91 49 SW -
16.08.2017 22:00:00 9,8 9,7 57 31 91 49 SSW 0,3
16.08.2017 21:00:00 10,0 9,9 55 30 96 52 SSW -
16.08.2017 20:00:00 9,7 9,6 52 28 89 48 SSW -
16.08.2017 19:00:00 9,1 9,0 52 28 81 44 SSW -
16.08.2017 18:00:00 8,9 8,7 50 27 76 41 S -
16.08.2017 17:00:00 8,4 8,3 46 25 81 44 S -
16.08.2017 16:00:00 8,0 7,8 48 26 98 53 S -
16.08.2017 15:00:00 7,3 7,2 54 29 87 47 S -
16.08.2017 14:00:00 6,9 6,8 46 25 94 51 S -
16.08.2017 13:00:00 6,3 6,2 57 31 98 53 S -
16.08.2017 12:00:00 6,2 6,1 59 32 96 52 S -
16.08.2017 11:00:00 6,3 5,2 59 32 106 57 S -
16.08.2017 10:00:00 6,8 5,3 55 30 87 47 SSW -
16.08.2017 09:00:00 6,1 5,7 55 30 74 40 SSW -
16.08.2017 08:00:00 6,1 5,5 42 23 68 37 SSW -
16.08.2017 07:00:00 5,5 5,1 54 29 70 38 SSW -
16.08.2017 06:00:00 5,2 4,7 54 29 76 41 SSW -
16.08.2017 05:00:00 4,7 4,5 50 27 70 38 SSW -
16.08.2017 04:00:00 4,5 4,4 42 23 72 39 SW -
16.08.2017 03:00:00 4,6 4,4 41 22 65 35 SW -
16.08.2017 02:00:00 4,9 4,6 34 18 70 38 SW -
16.08.2017 01:00:00 4,8 4,6 39 21 61 33 SW -
16.08.2017 00:00:00 4,9 4,8 31 17 61 33 WSW -
15.08.2017 23:00:00 4,9 4,8 39 21 63 34 SW -
15.08.2017 22:00:00 5,1 5,0 41 22 63 34 SW -
15.08.2017 21:00:00 5,2 4,9 42 23 76 41 SW -
15.08.2017 20:00:00 5,1 4,7 44 24 70 38 SW -
15.08.2017 19:00:00 5,2 5,1 35 19 72 39 WSW -
15.08.2017 18:00:00 5,1 5,0 46 25 68 37 SW -
15.08.2017 17:00:00 5,3 5,2 35 19 76 41 WSW -
15.08.2017 16:00:00 5,8 5,7 39 21 81 44 SW -
15.08.2017 15:00:00 5,3 5,1 42 23 81 44 SW -
15.08.2017 14:00:00 6,0 4,5 46 25 85 46 SW -
15.08.2017 13:00:00 5,1 5,0 44 24 74 40 SSW -
15.08.2017 12:00:00 5,6 4,3 46 25 65 35 SW -
15.08.2017 11:00:00 5,0 4,8 35 19 63 34 SW -

tt = temperature
td = dewpoint
ff = wind speed
fx = gusts
dd = wind direction
vv = visibility

Next stations